Time,TemperatureF,DewpointF,PressureIn,WindDirection,WindDirectionDegrees,WindSpeedMPH,WindSpeedGustMPH,Humidity,HourlyPrecipIn,Conditions,Clouds,dailyrainin,SolarRadiationWatts/m^2,SoftwareType,DateUTC
2013-11-12 00:13:00,78.0,71.0,-100.00,ENE,69,7.0,14.0,79,0.00,,,0.00,0.000000,,2013-11-12 05:13:00,
2013-11-12 00:24:00,78.0,71.0,-100.00,ENE,69,7.0,14.0,79,0.00,,,0.00,0.000000,,2013-11-12 05:24:00,
2013-11-12 00:34:00,78.0,71.0,-100.00,ENE,69,7.0,14.0,79,0.00,,,0.00,0.000000,,2013-11-12 05:34:00,
2013-11-12 01:13:00,78.0,71.0,-100.00,ENE,64,7.0,13.0,78,0.00,,,0.00,0.000000,,2013-11-12 06:13:00,
2013-11-12 01:22:00,78.0,71.0,-100.00,ENE,64,7.0,13.0,78,0.00,,,0.00,0.000000,,2013-11-12 06:22:00,
2013-11-12 01:32:00,78.0,71.0,-100.00,ENE,64,7.0,13.0,78,0.00,,,0.00,0.000000,,2013-11-12 06:32:00,
2013-11-12 02:11:00,77.0,71.0,-100.00,NE,55,7.0,13.0,81,0.00,,,0.00,0.000000,,2013-11-12 07:11:00,
2013-11-12 02:22:00,77.0,71.0,-100.00,NE,55,7.0,13.0,81,0.00,,,0.00,0.000000,,2013-11-12 07:22:00,
2013-11-12 02:32:00,77.0,71.0,-100.00,NE,55,7.0,13.0,81,0.00,,,0.00,0.000000,,2013-11-12 07:32:00,
2013-11-12 03:11:00,77.0,70.0,-100.00,NE,53,7.0,13.0,80,0.00,,,0.00,0.000000,,2013-11-12 08:11:00,
2013-11-12 03:22:00,77.0,70.0,-100.00,NE,53,7.0,13.0,80,0.00,,,0.00,0.000000,,2013-11-12 08:22:00,
2013-11-12 03:32:00,77.0,70.0,-100.00,NE,53,7.0,13.0,80,0.00,,,0.00,0.000000,,2013-11-12 08:32:00,
2013-11-12 04:12:00,77.0,71.0,-100.00,ENE,61,6.0,12.0,81,0.00,,,0.00,0.000000,,2013-11-12 09:12:00,
2013-11-12 04:22:00,77.0,71.0,-100.00,ENE,61,6.0,12.0,81,0.00,,,0.00,0.000000,,2013-11-12 09:22:00,
2013-11-12 04:33:00,77.0,71.0,-100.00,ENE,61,6.0,12.0,81,0.00,,,0.00,0.000000,,2013-11-12 09:33:00,
2013-11-12 05:13:00,77.0,71.0,-100.00,NE,55,7.0,13.0,82,0.00,,,0.00,0.000000,,2013-11-12 10:13:00,
2013-11-12 05:23:00,77.0,71.0,-100.00,NE,55,7.0,13.0,82,0.00,,,0.00,0.000000,,2013-11-12 10:23:00,
2013-11-12 05:33:00,77.0,71.0,-100.00,NE,55,7.0,13.0,82,0.00,,,0.00,0.000000,,2013-11-12 10:33:00,
2013-11-12 06:12:00,76.0,70.0,-100.00,NE,50,6.0,12.0,83,0.00,,,0.00,0.000000,,2013-11-12 11:12:00,
2013-11-12 06:22:00,76.0,70.0,-100.00,NE,50,6.0,12.0,83,0.00,,,0.00,0.000000,,2013-11-12 11:22:00,
2013-11-12 06:32:00,76.0,70.0,-100.00,NE,50,6.0,12.0,83,0.00,,,0.00,0.000000,,2013-11-12 11:32:00,
2013-11-12 07:11:00,76.0,71.0,-100.00,NE,43,6.0,12.0,84,0.00,,,0.00,0.000000,,2013-11-12 12:11:00,
2013-11-12 07:22:00,76.0,71.0,-100.00,NE,43,6.0,12.0,84,0.00,,,0.00,0.000000,,2013-11-12 12:22:00,
2013-11-12 07:32:00,76.0,71.0,-100.00,NE,43,6.0,12.0,84,0.00,,,0.00,0.000000,,2013-11-12 12:32:00,
2013-11-12 08:11:00,78.0,72.0,-100.00,NE,47,7.0,12.0,81,0.00,,,0.00,44.000000,,2013-11-12 13:11:00,
2013-11-12 08:22:00,78.0,72.0,-100.00,NE,47,7.0,12.0,81,0.00,,,0.00,44.000000,,2013-11-12 13:22:00,
2013-11-12 08:32:00,78.0,72.0,-100.00,NE,47,7.0,12.0,81,0.00,,,0.00,44.000000,,2013-11-12 13:32:00,
2013-11-12 09:12:00,79.0,71.0,-100.00,NE,51,8.0,14.0,77,0.00,,,0.00,205.000000,,2013-11-12 14:12:00,
2013-11-12 09:22:00,79.0,71.0,-100.00,NE,51,8.0,14.0,77,0.00,,,0.00,205.000000,,2013-11-12 14:22:00,
2013-11-12 09:32:00,79.0,71.0,-100.00,NE,51,8.0,14.0,77,0.00,,,0.00,205.000000,,2013-11-12 14:32:00,
2013-11-12 10:11:00,82.0,72.0,-100.00,NE,50,7.0,13.0,72,0.00,,,0.00,318.000000,,2013-11-12 15:11:00,
2013-11-12 10:22:00,82.0,72.0,-100.00,NE,50,7.0,13.0,72,0.00,,,0.00,318.000000,,2013-11-12 15:22:00,
2013-11-12 10:33:00,82.0,72.0,-100.00,NE,50,7.0,13.0,72,0.00,,,0.00,318.000000,,2013-11-12 15:33:00,
2013-11-12 11:13:00,83.0,72.0,-100.00,NE,38,7.0,15.0,69,0.00,,,0.00,556.000000,,2013-11-12 16:13:00,
2013-11-12 11:23:00,83.0,72.0,-100.00,NE,38,7.0,15.0,69,0.00,,,0.00,556.000000,,2013-11-12 16:23:00,
2013-11-12 11:33:00,83.0,72.0,-100.00,NE,38,7.0,15.0,69,0.00,,,0.00,556.000000,,2013-11-12 16:33:00,
2013-11-12 12:12:00,84.0,72.0,-100.00,NNE,33,6.0,13.0,68,0.00,,,0.00,639.000000,,2013-11-12 17:12:00,
2013-11-12 12:23:00,84.0,72.0,-100.00,NNE,33,6.0,13.0,68,0.00,,,0.00,639.000000,,2013-11-12 17:23:00,
2013-11-12 12:33:00,84.0,72.0,-100.00,NNE,33,6.0,13.0,68,0.00,,,0.00,639.000000,,2013-11-12 17:33:00,
2013-11-12 13:12:00,84.0,72.0,-100.00,NE,47,7.0,13.0,68,0.00,,,0.00,557.000000,,2013-11-12 18:12:00,
2013-11-12 13:23:00,84.0,72.0,-100.00,NE,47,7.0,13.0,68,0.00,,,0.00,557.000000,,2013-11-12 18:23:00,
2013-11-12 13:32:00,84.0,72.0,-100.00,NE,47,7.0,13.0,68,0.00,,,0.00,557.000000,,2013-11-12 18:32:00,
2013-11-12 14:11:00,85.0,72.0,-100.00,NE,36,6.0,12.0,65,0.00,,,0.00,650.000000,,2013-11-12 19:11:00,
2013-11-12 14:22:00,85.0,72.0,-100.00,NE,36,6.0,12.0,65,0.00,,,0.00,650.000000,,2013-11-12 19:22:00,
2013-11-12 14:32:00,85.0,72.0,-100.00,NE,36,6.0,12.0,65,0.00,,,0.00,650.000000,,2013-11-12 19:32:00,
2013-11-12 15:11:00,85.0,72.0,-100.00,NNE,17,5.0,11.0,66,0.00,,,0.00,535.000000,,2013-11-12 20:11:00,
2013-11-12 15:22:00,85.0,72.0,-100.00,NNE,17,5.0,11.0,66,0.00,,,0.00,535.000000,,2013-11-12 20:22:00,
2013-11-12 15:32:00,85.0,72.0,-100.00,NNE,17,5.0,11.0,66,0.00,,,0.00,535.000000,,2013-11-12 20:32:00,
2013-11-12 16:12:00,83.0,71.0,-100.00,NNE,18,5.0,10.0,68,0.00,,,0.00,383.000000,,2013-11-12 21:12:00,
2013-11-12 16:22:00,83.0,71.0,-100.00,NNE,18,5.0,10.0,68,0.00,,,0.00,383.000000,,2013-11-12 21:22:00,
2013-11-12 16:34:00,83.0,71.0,-100.00,NNE,18,5.0,10.0,68,0.00,,,0.00,383.000000,,2013-11-12 21:34:00,
2013-11-12 17:14:00,82.0,71.0,-100.00,NNE,22,5.0,10.0,69,0.00,,,0.00,241.000000,,2013-11-12 22:14:00,
2013-11-12 17:24:00,82.0,71.0,-100.00,NNE,22,5.0,10.0,69,0.00,,,0.00,241.000000,,2013-11-12 22:24:00,
2013-11-12 17:33:00,82.0,71.0,-100.00,NNE,22,5.0,10.0,69,0.00,,,0.00,241.000000,,2013-11-12 22:33:00,
2013-11-12 18:12:00,79.0,71.0,-100.00,NNE,14,4.0,9.0,77,0.00,,,0.00,51.000000,,2013-11-12 23:12:00,
2013-11-12 18:23:00,79.0,71.0,-100.00,NNE,14,4.0,9.0,77,0.00,,,0.00,51.000000,,2013-11-12 23:23:00,
2013-11-12 18:33:00,79.0,71.0,-100.00,NNE,14,4.0,9.0,77,0.00,,,0.00,51.000000,,2013-11-12 23:33:00,
2013-11-12 19:11:00,77.0,70.0,-100.00,NNE,33,6.0,11.0,79,0.00,,,0.00,0.000000,,2013-11-13 00:11:00,
2013-11-12 19:22:00,77.0,70.0,-100.00,NNE,33,6.0,11.0,79,0.00,,,0.00,0.000000,,2013-11-13 00:22:00,
2013-11-12 19:32:00,77.0,70.0,-100.00,NNE,33,6.0,11.0,79,0.00,,,0.00,0.000000,,2013-11-13 00:32:00,
2013-11-12 20:12:00,76.0,71.0,-100.00,North,1,4.0,9.0,84,0.00,,,0.00,0.000000,,2013-11-13 01:12:00,
2013-11-12 20:22:00,76.0,71.0,-100.00,North,1,4.0,9.0,84,0.00,,,0.00,0.000000,,2013-11-13 01:22:00,
2013-11-12 20:32:00,76.0,71.0,-100.00,North,1,4.0,9.0,84,0.00,,,0.00,0.000000,,2013-11-13 01:32:00,
2013-11-12 21:11:00,77.0,71.0,-100.00,North,2,6.0,11.0,82,0.00,,,0.00,0.000000,,2013-11-13 02:11:00,
2013-11-12 21:22:00,77.0,71.0,-100.00,North,2,6.0,11.0,82,0.00,,,0.00,0.000000,,2013-11-13 02:22:00,
2013-11-12 21:32:00,77.0,71.0,-100.00,North,2,6.0,11.0,82,0.00,,,0.00,0.000000,,2013-11-13 02:32:00,
2013-11-12 22:12:00,78.0,72.0,-100.00,NNE,15,5.0,14.0,81,0.00,,,0.00,0.000000,,2013-11-13 03:12:00,
2013-11-12 22:22:00,78.0,72.0,-100.00,NNE,15,5.0,14.0,81,0.00,,,0.00,0.000000,,2013-11-13 03:22:00,
2013-11-12 22:34:00,78.0,72.0,-100.00,NNE,15,5.0,14.0,81,0.00,,,0.00,0.000000,,2013-11-13 03:34:00,
2013-11-12 23:14:00,78.0,71.0,-100.00,NE,38,5.0,13.0,79,0.00,,,0.00,0.000000,,2013-11-13 04:14:00,
2013-11-12 23:23:00,78.0,71.0,-100.00,NE,38,5.0,13.0,79,0.00,,,0.00,0.000000,,2013-11-13 04:23:00,
2013-11-12 23:34:00,78.0,71.0,-100.00,NE,38,5.0,13.0,79,0.00,,,0.00,0.000000,,2013-11-13 04:34:00,